sensor_id;sensor_type;location;lat;lon;timestamp;P1;durP1;ratioP1;P2;durP2;ratioP2
7845;SDS011;3968;51.424;6.788;2022-07-29T00:00:45;5.00;;;1.60;;
7845;SDS011;3968;51.424;6.788;2022-07-29T00:03:11;3.65;;;2.00;;
7845;SDS011;3968;51.424;6.788;2022-07-29T00:05:41;5.97;;;2.00;;
7845;SDS011;3968;51.424;6.788;2022-07-29T00:08:07;5.40;;;2.00;;
7845;SDS011;3968;51.424;6.788;2022-07-29T00:10:33;5.25;;;1.85;;
7845;SDS011;3968;51.424;6.788;2022-07-29T00:12:59;4.53;;;2.25;;
7845;SDS011;3968;51.424;6.788;2022-07-29T00:15:29;5.65;;;1.73;;
7845;SDS011;3968;51.424;6.788;2022-07-29T00:17:54;7.32;;;2.00;;
7845;SDS011;3968;51.424;6.788;2022-07-29T00:20:20;5.47;;;2.17;;
7845;SDS011;3968;51.424;6.788;2022-07-29T00:22:46;6.47;;;2.08;;
7845;SDS011;3968;51.424;6.788;2022-07-29T00:25:12;3.97;;;2.40;;
7845;SDS011;3968;51.424;6.788;2022-07-29T00:27:38;6.50;;;2.00;;
7845;SDS011;3968;51.424;6.788;2022-07-29T00:30:04;6.78;;;1.80;;
7845;SDS011;3968;51.424;6.788;2022-07-29T00:32:30;6.93;;;2.28;;
7845;SDS011;3968;51.424;6.788;2022-07-29T00:34:56;9.10;;;2.00;;
7845;SDS011;3968;51.424;6.788;2022-07-29T00:37:40;6.10;;;2.40;;
7845;SDS011;3968;51.424;6.788;2022-07-29T00:40:06;3.28;;;1.90;;
7845;SDS011;3968;51.424;6.788;2022-07-29T00:42:45;9.70;;;2.00;;
7845;SDS011;3968;51.424;6.788;2022-07-29T00:45:12;4.00;;;1.70;;
7845;SDS011;3968;51.424;6.788;2022-07-29T00:47:39;3.90;;;1.90;;
7845;SDS011;3968;51.424;6.788;2022-07-29T00:50:06;4.68;;;2.08;;
7845;SDS011;3968;51.424;6.788;2022-07-29T00:52:33;4.53;;;2.00;;
7845;SDS011;3968;51.424;6.788;2022-07-29T00:55:05;4.45;;;2.10;;
7845;SDS011;3968;51.424;6.788;2022-07-29T00:57:34;3.72;;;1.80;;
7845;SDS011;3968;51.424;6.788;2022-07-29T01:00:01;3.88;;;1.88;;
7845;SDS011;3968;51.424;6.788;2022-07-29T01:02:30;6.43;;;2.00;;
7845;SDS011;3968;51.424;6.788;2022-07-29T01:04:56;5.85;;;1.83;;
7845;SDS011;3968;51.424;6.788;2022-07-29T01:07:22;4.30;;;1.77;;
7845;SDS011;3968;51.424;6.788;2022-07-29T01:09:50;3.00;;;1.80;;
7845;SDS011;3968;51.424;6.788;2022-07-29T01:12:18;5.18;;;1.95;;
7845;SDS011;3968;51.424;6.788;2022-07-29T01:14:47;4.07;;;1.83;;
7845;SDS011;3968;51.424;6.788;2022-07-29T01:17:17;6.15;;;2.20;;
7845;SDS011;3968;51.424;6.788;2022-07-29T01:25:19;9.73;;;2.10;;
7845;SDS011;3968;51.424;6.788;2022-07-29T01:30:20;4.53;;;2.08;;
7845;SDS011;3968;51.424;6.788;2022-07-29T01:32:48;2.38;;;1.60;;
7845;SDS011;3968;51.424;6.788;2022-07-29T01:35:25;5.93;;;2.42;;
7845;SDS011;3968;51.424;6.788;2022-07-29T01:38:05;3.55;;;1.77;;
7845;SDS011;3968;51.424;6.788;2022-07-29T01:40:37;4.90;;;1.77;;
7845;SDS011;3968;51.424;6.788;2022-07-29T01:43:31;5.60;;;2.03;;
7845;SDS011;3968;51.424;6.788;2022-07-29T01:46:04;7.85;;;1.80;;
7845;SDS011;3968;51.424;6.788;2022-07-29T01:48:40;4.35;;;1.60;;
7845;SDS011;3968;51.424;6.788;2022-07-29T01:56:38;7.53;;;2.00;;
7845;SDS011;3968;51.424;6.788;2022-07-29T01:59:05;5.38;;;1.80;;
7845;SDS011;3968;51.424;6.788;2022-07-29T02:01:32;11.90;;;2.20;;
7845;SDS011;3968;51.424;6.788;2022-07-29T02:04:03;10.32;;;2.20;;
7845;SDS011;3968;51.424;6.788;2022-07-29T02:06:30;4.20;;;1.73;;
7845;SDS011;3968;51.424;6.788;2022-07-29T02:08:58;3.47;;;1.88;;
7845;SDS011;3968;51.424;6.788;2022-07-29T02:11:27;6.32;;;1.98;;
7845;SDS011;3968;51.424;6.788;2022-07-29T02:13:57;10.82;;;2.08;;
7845;SDS011;3968;51.424;6.788;2022-07-29T02:16:25;4.75;;;2.10;;
7845;SDS011;3968;51.424;6.788;2022-07-29T02:18:53;3.40;;;2.03;;
7845;SDS011;3968;51.424;6.788;2022-07-29T02:21:24;5.35;;;1.88;;
7845;SDS011;3968;51.424;6.788;2022-07-29T02:23:54;2.58;;;1.60;;
7845;SDS011;3968;51.424;6.788;2022-07-29T02:26:24;4.80;;;2.03;;
7845;SDS011;3968;51.424;6.788;2022-07-29T02:28:53;8.88;;;2.35;;
7845;SDS011;3968;51.424;6.788;2022-07-29T02:31:23;6.13;;;1.92;;
7845;SDS011;3968;51.424;6.788;2022-07-29T02:33:51;4.65;;;1.63;;
7845;SDS011;3968;51.424;6.788;2022-07-29T02:36:20;7.53;;;1.88;;
7845;SDS011;3968;51.424;6.788;2022-07-29T02:38:47;8.35;;;2.30;;
7845;SDS011;3968;51.424;6.788;2022-07-29T02:41:23;7.10;;;2.13;;
7845;SDS011;3968;51.424;6.788;2022-07-29T02:44:09;6.15;;;2.40;;
7845;SDS011;3968;51.424;6.788;2022-07-29T02:46:37;7.22;;;2.30;;
7845;SDS011;3968;51.424;6.788;2022-07-29T02:51:49;6.85;;;2.25;;
7845;SDS011;3968;51.424;6.788;2022-07-29T02:54:23;5.70;;;2.25;;
7845;SDS011;3968;51.424;6.788;2022-07-29T02:56:54;5.82;;;2.30;;
7845;SDS011;3968;51.424;6.788;2022-07-29T02:59:24;4.97;;;1.90;;
7845;SDS011;3968;51.424;6.788;2022-07-29T03:01:52;3.65;;;1.83;;
7845;SDS011;3968;51.424;6.788;2022-07-29T03:04:20;2.65;;;1.60;;
7845;SDS011;3968;51.424;6.788;2022-07-29T03:06:49;6.75;;;3.05;;
7845;SDS011;3968;51.424;6.788;2022-07-29T03:09:19;6.45;;;2.00;;
7845;SDS011;3968;51.424;6.788;2022-07-29T03:11:46;4.72;;;2.17;;
7845;SDS011;3968;51.424;6.788;2022-07-29T03:14:13;5.55;;;2.40;;
7845;SDS011;3968;51.424;6.788;2022-07-29T03:16:39;9.25;;;2.70;;
7845;SDS011;3968;51.424;6.788;2022-07-29T03:19:05;5.60;;;2.75;;
7845;SDS011;3968;51.424;6.788;2022-07-29T03:21:31;14.98;;;2.90;;
7845;SDS011;3968;51.424;6.788;2022-07-29T03:23:57;9.43;;;2.42;;
7845;SDS011;3968;51.424;6.788;2022-07-29T03:26:22;7.25;;;2.10;;
7845;SDS011;3968;51.424;6.788;2022-07-29T03:28:48;7.55;;;2.25;;
7845;SDS011;3968;51.424;6.788;2022-07-29T03:31:14;6.97;;;2.20;;
7845;SDS011;3968;51.424;6.788;2022-07-29T03:33:40;6.95;;;2.50;;
7845;SDS011;3968;51.424;6.788;2022-07-29T03:36:06;13.65;;;2.55;;
7845;SDS011;3968;51.424;6.788;2022-07-29T03:38:32;5.78;;;2.70;;
7845;SDS011;3968;51.424;6.788;2022-07-29T03:41:01;6.57;;;2.50;;
7845;SDS011;3968;51.424;6.788;2022-07-29T03:43:34;3.33;;;2.05;;
7845;SDS011;3968;51.424;6.788;2022-07-29T03:46:02;7.90;;;2.13;;
7845;SDS011;3968;51.424;6.788;2022-07-29T03:48:31;7.43;;;1.88;;
7845;SDS011;3968;51.424;6.788;2022-07-29T03:51:00;5.45;;;1.80;;
7845;SDS011;3968;51.424;6.788;2022-07-29T03:53:26;5.45;;;2.05;;
7845;SDS011;3968;51.424;6.788;2022-07-29T03:55:54;3.00;;;2.10;;
7845;SDS011;3968;51.424;6.788;2022-07-29T03:58:23;4.68;;;1.85;;
7845;SDS011;3968;51.424;6.788;2022-07-29T04:00:51;4.60;;;1.50;;
7845;SDS011;3968;51.424;6.788;2022-07-29T04:03:19;4.90;;;2.00;;
7845;SDS011;3968;51.424;6.788;2022-07-29T04:06:05;4.70;;;1.92;;
7845;SDS011;3968;51.424;6.788;2022-07-29T04:08:32;5.55;;;2.08;;
7845;SDS011;3968;51.424;6.788;2022-07-29T04:10:59;9.40;;;2.92;;
7845;SDS011;3968;51.424;6.788;2022-07-29T04:13:25;4.75;;;2.65;;
7845;SDS011;3968;51.424;6.788;2022-07-29T04:15:51;6.43;;;2.78;;
7845;SDS011;3968;51.424;6.788;2022-07-29T04:18:17;6.75;;;2.78;;
7845;SDS011;3968;51.424;6.788;2022-07-29T04:20:42;6.53;;;2.80;;
7845;SDS011;3968;51.424;6.788;2022-07-29T04:23:08;5.63;;;3.00;;
7845;SDS011;3968;51.424;6.788;2022-07-29T04:25:38;8.73;;;3.00;;
7845;SDS011;3968;51.424;6.788;2022-07-29T04:28:05;6.85;;;2.60;;
7845;SDS011;3968;51.424;6.788;2022-07-29T04:30:31;6.75;;;2.88;;
7845;SDS011;3968;51.424;6.788;2022-07-29T04:32:59;9.60;;;3.50;;
7845;SDS011;3968;51.424;6.788;2022-07-29T04:35:26;14.60;;;4.20;;
7845;SDS011;3968;51.424;6.788;2022-07-29T04:37:53;9.13;;;3.97;;
7845;SDS011;3968;51.424;6.788;2022-07-29T04:40:19;9.15;;;4.20;;
7845;SDS011;3968;51.424;6.788;2022-07-29T04:42:45;11.77;;;3.77;;
7845;SDS011;3968;51.424;6.788;2022-07-29T04:45:11;7.78;;;3.10;;
7845;SDS011;3968;51.424;6.788;2022-07-29T04:47:40;4.85;;;2.67;;
7845;SDS011;3968;51.424;6.788;2022-07-29T04:50:06;7.22;;;2.97;;
7845;SDS011;3968;51.424;6.788;2022-07-29T04:52:32;5.25;;;2.40;;
7845;SDS011;3968;51.424;6.788;2022-07-29T04:55:00;4.67;;;2.30;;
7845;SDS011;3968;51.424;6.788;2022-07-29T04:57:26;7.45;;;2.35;;
7845;SDS011;3968;51.424;6.788;2022-07-29T04:59:51;6.77;;;2.47;;
7845;SDS011;3968;51.424;6.788;2022-07-29T05:02:17;8.73;;;2.93;;
7845;SDS011;3968;51.424;6.788;2022-07-29T05:04:43;4.38;;;2.50;;
7845;SDS011;3968;51.424;6.788;2022-07-29T05:07:08;6.23;;;2.47;;
7845;SDS011;3968;51.424;6.788;2022-07-29T05:09:34;8.50;;;2.63;;
7845;SDS011;3968;51.424;6.788;2022-07-29T05:12:00;4.80;;;2.90;;
7845;SDS011;3968;51.424;6.788;2022-07-29T05:14:26;6.15;;;2.80;;
7845;SDS011;3968;51.424;6.788;2022-07-29T05:16:54;6.07;;;2.60;;
7845;SDS011;3968;51.424;6.788;2022-07-29T05:19:22;4.53;;;2.80;;
7845;SDS011;3968;51.424;6.788;2022-07-29T05:21:48;7.38;;;2.80;;
7845;SDS011;3968;51.424;6.788;2022-07-29T05:24:14;10.40;;;3.10;;
7845;SDS011;3968;51.424;6.788;2022-07-29T05:26:39;7.35;;;2.60;;
7845;SDS011;3968;51.424;6.788;2022-07-29T05:29:08;4.75;;;3.33;;
7845;SDS011;3968;51.424;6.788;2022-07-29T05:31:34;7.32;;;3.40;;
7845;SDS011;3968;51.424;6.788;2022-07-29T05:33:59;5.18;;;2.80;;
7845;SDS011;3968;51.424;6.788;2022-07-29T05:36:25;9.47;;;3.30;;
7845;SDS011;3968;51.424;6.788;2022-07-29T05:38:51;7.60;;;3.90;;
7845;SDS011;3968;51.424;6.788;2022-07-29T05:41:20;8.60;;;2.90;;
7845;SDS011;3968;51.424;6.788;2022-07-29T05:43:46;7.13;;;3.50;;
7845;SDS011;3968;51.424;6.788;2022-07-29T05:46:11;6.03;;;2.90;;
7845;SDS011;3968;51.424;6.788;2022-07-29T05:48:38;6.90;;;2.57;;
7845;SDS011;3968;51.424;6.788;2022-07-29T05:51:04;8.90;;;2.87;;
7845;SDS011;3968;51.424;6.788;2022-07-29T05:53:30;9.20;;;3.03;;
7845;SDS011;3968;51.424;6.788;2022-07-29T05:55:56;5.50;;;2.60;;
7845;SDS011;3968;51.424;6.788;2022-07-29T05:58:22;12.27;;;3.00;;
7845;SDS011;3968;51.424;6.788;2022-07-29T06:00:48;8.97;;;3.53;;
7845;SDS011;3968;51.424;6.788;2022-07-29T06:03:13;6.13;;;2.67;;
7845;SDS011;3968;51.424;6.788;2022-07-29T06:05:39;4.70;;;2.63;;
7845;SDS011;3968;51.424;6.788;2022-07-29T06:08:05;5.10;;;2.83;;
7845;SDS011;3968;51.424;6.788;2022-07-29T06:10:32;6.57;;;2.72;;
7845;SDS011;3968;51.424;6.788;2022-07-29T06:13:01;5.82;;;2.80;;
7845;SDS011;3968;51.424;6.788;2022-07-29T06:15:26;7.05;;;3.00;;
7845;SDS011;3968;51.424;6.788;2022-07-29T06:17:52;6.10;;;3.20;;
7845;SDS011;3968;51.424;6.788;2022-07-29T06:20:18;16.20;;;3.70;;
7845;SDS011;3968;51.424;6.788;2022-07-29T06:22:44;7.03;;;2.85;;
7845;SDS011;3968;51.424;6.788;2022-07-29T06:25:10;6.03;;;2.92;;
7845;SDS011;3968;51.424;6.788;2022-07-29T06:27:36;9.57;;;2.80;;
7845;SDS011;3968;51.424;6.788;2022-07-29T06:30:02;10.27;;;3.53;;
7845;SDS011;3968;51.424;6.788;2022-07-29T06:32:31;8.70;;;3.20;;
7845;SDS011;3968;51.424;6.788;2022-07-29T06:34:57;7.20;;;2.95;;
7845;SDS011;3968;51.424;6.788;2022-07-29T06:37:23;8.45;;;3.40;;
7845;SDS011;3968;51.424;6.788;2022-07-29T06:39:49;8.70;;;3.58;;
7845;SDS011;3968;51.424;6.788;2022-07-29T06:42:34;9.57;;;3.00;;
7845;SDS011;3968;51.424;6.788;2022-07-29T06:45:00;7.93;;;3.20;;
7845;SDS011;3968;51.424;6.788;2022-07-29T06:47:26;8.30;;;4.22;;
7845;SDS011;3968;51.424;6.788;2022-07-29T06:49:51;7.75;;;3.50;;
7845;SDS011;3968;51.424;6.788;2022-07-29T06:52:17;4.55;;;3.15;;
7845;SDS011;3968;51.424;6.788;2022-07-29T06:54:43;7.22;;;3.80;;
7845;SDS011;3968;51.424;6.788;2022-07-29T06:57:13;8.45;;;3.47;;
7845;SDS011;3968;51.424;6.788;2022-07-29T06:59:38;6.15;;;3.53;;
7845;SDS011;3968;51.424;6.788;2022-07-29T07:02:05;9.77;;;3.90;;
7845;SDS011;3968;51.424;6.788;2022-07-29T07:04:30;9.45;;;4.13;;
7845;SDS011;3968;51.424;6.788;2022-07-29T07:06:57;9.33;;;4.50;;
7845;SDS011;3968;51.424;6.788;2022-07-29T07:09:24;6.57;;;3.87;;
7845;SDS011;3968;51.424;6.788;2022-07-29T07:11:49;9.95;;;4.15;;
7845;SDS011;3968;51.424;6.788;2022-07-29T07:14:15;10.60;;;4.37;;
7845;SDS011;3968;51.424;6.788;2022-07-29T07:16:41;7.60;;;4.43;;
7845;SDS011;3968;51.424;6.788;2022-07-29T07:19:07;10.37;;;4.27;;
7845;SDS011;3968;51.424;6.788;2022-07-29T07:21:32;6.07;;;4.03;;
7845;SDS011;3968;51.424;6.788;2022-07-29T07:23:58;8.57;;;4.10;;
7845;SDS011;3968;51.424;6.788;2022-07-29T07:26:25;8.68;;;4.32;;
7845;SDS011;3968;51.424;6.788;2022-07-29T07:28:52;11.37;;;3.87;;
7845;SDS011;3968;51.424;6.788;2022-07-29T07:31:17;8.77;;;4.15;;
7845;SDS011;3968;51.424;6.788;2022-07-29T07:33:43;6.45;;;3.80;;
7845;SDS011;3968;51.424;6.788;2022-07-29T07:36:09;8.60;;;3.87;;
7845;SDS011;3968;51.424;6.788;2022-07-29T07:38:35;7.28;;;3.83;;
7845;SDS011;3968;51.424;6.788;2022-07-29T07:41:01;8.65;;;4.07;;
7845;SDS011;3968;51.424;6.788;2022-07-29T07:43:27;7.95;;;3.45;;
7845;SDS011;3968;51.424;6.788;2022-07-29T07:45:52;9.70;;;3.72;;
7845;SDS011;3968;51.424;6.788;2022-07-29T07:48:18;7.88;;;3.83;;
7845;SDS011;3968;51.424;6.788;2022-07-29T07:50:44;6.57;;;3.53;;
7845;SDS011;3968;51.424;6.788;2022-07-29T07:53:10;11.32;;;3.75;;
7845;SDS011;3968;51.424;6.788;2022-07-29T07:55:42;14.63;;;4.30;;
7845;SDS011;3968;51.424;6.788;2022-07-29T07:58:08;8.60;;;4.43;;
7845;SDS011;3968;51.424;6.788;2022-07-29T08:00:34;7.03;;;3.50;;
7845;SDS011;3968;51.424;6.788;2022-07-29T08:03:00;9.02;;;4.10;;
7845;SDS011;3968;51.424;6.788;2022-07-29T08:05:26;10.57;;;4.07;;
7845;SDS011;3968;51.424;6.788;2022-07-29T08:07:51;8.82;;;4.30;;
7845;SDS011;3968;51.424;6.788;2022-07-29T08:10:18;9.63;;;4.43;;
7845;SDS011;3968;51.424;6.788;2022-07-29T08:13:06;8.60;;;4.22;;
7845;SDS011;3968;51.424;6.788;2022-07-29T08:15:32;13.70;;;4.85;;
7845;SDS011;3968;51.424;6.788;2022-07-29T08:17:59;11.77;;;5.30;;
7845;SDS011;3968;51.424;6.788;2022-07-29T08:20:25;14.80;;;6.07;;
7845;SDS011;3968;51.424;6.788;2022-07-29T08:22:50;9.43;;;4.85;;
7845;SDS011;3968;51.424;6.788;2022-07-29T08:25:17;9.57;;;5.20;;
7845;SDS011;3968;51.424;6.788;2022-07-29T08:27:45;11.18;;;5.05;;
7845;SDS011;3968;51.424;6.788;2022-07-29T08:30:11;12.05;;;5.30;;
7845;SDS011;3968;51.424;6.788;2022-07-29T08:32:37;13.95;;;5.07;;
7845;SDS011;3968;51.424;6.788;2022-07-29T08:35:03;14.25;;;4.80;;
7845;SDS011;3968;51.424;6.788;2022-07-29T08:37:29;12.43;;;4.57;;
7845;SDS011;3968;51.424;6.788;2022-07-29T08:39:55;10.57;;;5.03;;
7845;SDS011;3968;51.424;6.788;2022-07-29T08:42:20;11.60;;;5.20;;
7845;SDS011;3968;51.424;6.788;2022-07-29T08:44:46;12.70;;;5.50;;
7845;SDS011;3968;51.424;6.788;2022-07-29T08:47:18;10.70;;;5.22;;
7845;SDS011;3968;51.424;6.788;2022-07-29T08:49:44;19.83;;;6.00;;
7845;SDS011;3968;51.424;6.788;2022-07-29T08:52:12;15.23;;;4.93;;
7845;SDS011;3968;51.424;6.788;2022-07-29T08:54:39;10.73;;;4.70;;
7845;SDS011;3968;51.424;6.788;2022-07-29T08:57:08;13.77;;;5.75;;
7845;SDS011;3968;51.424;6.788;2022-07-29T08:59:37;9.45;;;4.90;;
7845;SDS011;3968;51.424;6.788;2022-07-29T09:02:05;16.10;;;5.97;;
7845;SDS011;3968;51.424;6.788;2022-07-29T09:04:40;9.75;;;5.35;;
7845;SDS011;3968;51.424;6.788;2022-07-29T09:07:06;11.40;;;4.75;;
7845;SDS011;3968;51.424;6.788;2022-07-29T09:09:33;10.40;;;5.05;;
7845;SDS011;3968;51.424;6.788;2022-07-29T09:11:59;14.48;;;5.95;;
7845;SDS011;3968;51.424;6.788;2022-07-29T09:14:25;11.30;;;6.20;;
7845;SDS011;3968;51.424;6.788;2022-07-29T09:17:00;8.13;;;5.22;;
7845;SDS011;3968;51.424;6.788;2022-07-29T09:19:30;20.73;;;5.50;;
7845;SDS011;3968;51.424;6.788;2022-07-29T09:22:03;10.43;;;5.57;;
7845;SDS011;3968;51.424;6.788;2022-07-29T09:27:23;11.55;;;5.57;;
7845;SDS011;3968;51.424;6.788;2022-07-29T09:32:30;14.20;;;5.55;;
7845;SDS011;3968;51.424;6.788;2022-07-29T09:37:42;19.80;;;6.10;;
7845;SDS011;3968;51.424;6.788;2022-07-29T09:40:16;9.70;;;5.15;;
7845;SDS011;3968;51.424;6.788;2022-07-29T09:42:44;12.50;;;6.10;;
7845;SDS011;3968;51.424;6.788;2022-07-29T09:45:11;12.05;;;5.70;;
7845;SDS011;3968;51.424;6.788;2022-07-29T09:47:42;12.98;;;6.22;;
7845;SDS011;3968;51.424;6.788;2022-07-29T09:50:13;14.85;;;6.63;;
7845;SDS011;3968;51.424;6.788;2022-07-29T09:52:50;11.15;;;6.57;;
7845;SDS011;3968;51.424;6.788;2022-07-29T09:55:17;14.68;;;5.82;;
7845;SDS011;3968;51.424;6.788;2022-07-29T09:57:43;14.43;;;6.13;;
7845;SDS011;3968;51.424;6.788;2022-07-29T10:00:11;8.65;;;5.82;;
7845;SDS011;3968;51.424;6.788;2022-07-29T10:02:40;13.00;;;5.78;;
7845;SDS011;3968;51.424;6.788;2022-07-29T10:05:24;12.45;;;5.40;;
7845;SDS011;3968;51.424;6.788;2022-07-29T10:07:54;13.13;;;5.50;;
7845;SDS011;3968;51.424;6.788;2022-07-29T10:12:51;11.55;;;7.35;;
7845;SDS011;3968;51.424;6.788;2022-07-29T10:15:19;16.20;;;7.30;;
7845;SDS011;3968;51.424;6.788;2022-07-29T10:17:47;14.95;;;6.10;;
7845;SDS011;3968;51.424;6.788;2022-07-29T10:20:13;16.58;;;7.22;;
7845;SDS011;3968;51.424;6.788;2022-07-29T10:22:40;13.13;;;5.72;;
7845;SDS011;3968;51.424;6.788;2022-07-29T10:25:06;15.82;;;5.25;;
7845;SDS011;3968;51.424;6.788;2022-07-29T10:27:34;9.40;;;4.60;;
7845;SDS011;3968;51.424;6.788;2022-07-29T10:30:01;12.90;;;6.60;;
7845;SDS011;3968;51.424;6.788;2022-07-29T10:43:40;15.43;;;4.90;;
7845;SDS011;3968;51.424;6.788;2022-07-29T10:46:11;12.13;;;4.50;;
7845;SDS011;3968;51.424;6.788;2022-07-29T11:07:31;9.45;;;3.33;;
7845;SDS011;3968;51.424;6.788;2022-07-29T11:31:35;6.57;;;2.90;;
7845;SDS011;3968;51.424;6.788;2022-07-29T11:39:44;7.47;;;2.97;;
7845;SDS011;3968;51.424;6.788;2022-07-29T11:42:53;9.48;;;2.60;;
7845;SDS011;3968;51.424;6.788;2022-07-29T11:47:30;10.93;;;3.78;;
7845;SDS011;3968;51.424;6.788;2022-07-29T11:49:57;9.70;;;4.20;;
7845;SDS011;3968;51.424;6.788;2022-07-29T11:55:03;8.73;;;4.05;;
7845;SDS011;3968;51.424;6.788;2022-07-29T11:57:30;10.45;;;4.82;;
7845;SDS011;3968;51.424;6.788;2022-07-29T11:59:57;10.55;;;4.93;;
7845;SDS011;3968;51.424;6.788;2022-07-29T12:02:23;12.98;;;5.15;;
7845;SDS011;3968;51.424;6.788;2022-07-29T12:04:52;13.52;;;5.53;;
7845;SDS011;3968;51.424;6.788;2022-07-29T12:07:40;12.20;;;4.45;;
7845;SDS011;3968;51.424;6.788;2022-07-29T12:10:06;9.38;;;4.25;;
7845;SDS011;3968;51.424;6.788;2022-07-29T12:12:33;11.75;;;5.13;;
7845;SDS011;3968;51.424;6.788;2022-07-29T12:15:15;7.00;;;4.43;;
7845;SDS011;3968;51.424;6.788;2022-07-29T12:17:45;9.35;;;4.63;;
7845;SDS011;3968;51.424;6.788;2022-07-29T12:20:12;11.63;;;4.72;;
7845;SDS011;3968;51.424;6.788;2022-07-29T12:22:39;21.77;;;5.22;;
7845;SDS011;3968;51.424;6.788;2022-07-29T12:27:40;9.27;;;4.55;;
7845;SDS011;3968;51.424;6.788;2022-07-29T12:30:09;10.40;;;4.82;;
7845;SDS011;3968;51.424;6.788;2022-07-29T12:32:46;14.27;;;4.78;;
7845;SDS011;3968;51.424;6.788;2022-07-29T12:35:19;8.45;;;3.75;;
7845;SDS011;3968;51.424;6.788;2022-07-29T12:37:48;10.32;;;3.75;;
7845;SDS011;3968;51.424;6.788;2022-07-29T12:40:16;10.55;;;4.25;;
7845;SDS011;3968;51.424;6.788;2022-07-29T12:45:34;11.25;;;4.70;;
7845;SDS011;3968;51.424;6.788;2022-07-29T12:48:00;6.22;;;3.55;;
7845;SDS011;3968;51.424;6.788;2022-07-29T12:50:26;7.85;;;3.13;;
7845;SDS011;3968;51.424;6.788;2022-07-29T12:52:52;6.57;;;3.35;;
7845;SDS011;3968;51.424;6.788;2022-07-29T12:58:03;8.35;;;3.83;;
7845;SDS011;3968;51.424;6.788;2022-07-29T13:00:29;7.75;;;3.92;;
7845;SDS011;3968;51.424;6.788;2022-07-29T13:02:55;5.78;;;3.50;;
7845;SDS011;3968;51.424;6.788;2022-07-29T13:05:22;8.20;;;3.67;;
7845;SDS011;3968;51.424;6.788;2022-07-29T13:07:49;13.25;;;4.30;;
7845;SDS011;3968;51.424;6.788;2022-07-29T13:10:20;10.80;;;3.85;;
7845;SDS011;3968;51.424;6.788;2022-07-29T13:13:02;7.15;;;3.88;;
7845;SDS011;3968;51.424;6.788;2022-07-29T13:15:37;8.48;;;4.22;;
7845;SDS011;3968;51.424;6.788;2022-07-29T13:20:55;7.45;;;3.45;;
7845;SDS011;3968;51.424;6.788;2022-07-29T13:23:21;8.95;;;3.92;;
7845;SDS011;3968;51.424;6.788;2022-07-29T13:25:47;8.13;;;3.83;;
7845;SDS011;3968;51.424;6.788;2022-07-29T13:28:13;12.05;;;3.88;;
7845;SDS011;3968;51.424;6.788;2022-07-29T13:30:39;11.73;;;4.40;;
7845;SDS011;3968;51.424;6.788;2022-07-29T13:33:06;13.85;;;4.63;;
7845;SDS011;3968;51.424;6.788;2022-07-29T13:35:31;7.90;;;4.05;;
7845;SDS011;3968;51.424;6.788;2022-07-29T13:37:57;9.25;;;3.22;;
7845;SDS011;3968;51.424;6.788;2022-07-29T13:40:23;12.02;;;3.33;;
7845;SDS011;3968;51.424;6.788;2022-07-29T13:42:54;7.82;;;3.85;;
7845;SDS011;3968;51.424;6.788;2022-07-29T13:45:19;11.90;;;4.00;;
7845;SDS011;3968;51.424;6.788;2022-07-29T13:47:45;5.72;;;3.05;;
7845;SDS011;3968;51.424;6.788;2022-07-29T13:50:11;6.22;;;2.70;;
7845;SDS011;3968;51.424;6.788;2022-07-29T13:52:37;12.45;;;3.17;;
7845;SDS011;3968;51.424;6.788;2022-07-29T13:55:03;10.02;;;3.40;;
7845;SDS011;3968;51.424;6.788;2022-07-29T13:57:30;9.50;;;3.47;;
7845;SDS011;3968;51.424;6.788;2022-07-29T13:59:56;59.63;;;8.32;;
7845;SDS011;3968;51.424;6.788;2022-07-29T14:02:22;15.40;;;4.03;;
7845;SDS011;3968;51.424;6.788;2022-07-29T14:04:48;11.73;;;3.28;;
7845;SDS011;3968;51.424;6.788;2022-07-29T14:07:13;11.48;;;3.50;;
7845;SDS011;3968;51.424;6.788;2022-07-29T14:09:39;23.75;;;12.02;;
7845;SDS011;3968;51.424;6.788;2022-07-29T14:12:08;5.65;;;2.90;;
7845;SDS011;3968;51.424;6.788;2022-07-29T14:14:34;6.22;;;3.00;;
7845;SDS011;3968;51.424;6.788;2022-07-29T14:17:03;7.78;;;3.17;;
7845;SDS011;3968;51.424;6.788;2022-07-29T14:19:31;12.18;;;3.33;;
7845;SDS011;3968;51.424;6.788;2022-07-29T14:22:00;8.25;;;2.90;;
7845;SDS011;3968;51.424;6.788;2022-07-29T14:24:27;4.30;;;2.85;;
7845;SDS011;3968;51.424;6.788;2022-07-29T14:26:53;4.78;;;2.78;;
7845;SDS011;3968;51.424;6.788;2022-07-29T14:29:19;15.20;;;2.72;;
7845;SDS011;3968;51.424;6.788;2022-07-29T14:31:47;20.50;;;4.57;;
7845;SDS011;3968;51.424;6.788;2022-07-29T14:34:13;7.25;;;2.75;;
7845;SDS011;3968;51.424;6.788;2022-07-29T14:36:40;10.65;;;2.95;;
7845;SDS011;3968;51.424;6.788;2022-07-29T14:39:06;8.30;;;3.00;;
7845;SDS011;3968;51.424;6.788;2022-07-29T14:41:31;11.25;;;3.00;;
7845;SDS011;3968;51.424;6.788;2022-07-29T14:43:57;11.10;;;5.25;;
7845;SDS011;3968;51.424;6.788;2022-07-29T14:46:25;5.57;;;2.40;;
7845;SDS011;3968;51.424;6.788;2022-07-29T14:48:51;6.15;;;3.20;;
7845;SDS011;3968;51.424;6.788;2022-07-29T14:51:17;8.60;;;2.90;;
7845;SDS011;3968;51.424;6.788;2022-07-29T14:53:43;9.05;;;3.05;;
7845;SDS011;3968;51.424;6.788;2022-07-29T14:56:09;5.40;;;2.75;;
7845;SDS011;3968;51.424;6.788;2022-07-29T14:58:34;4.03;;;2.47;;
7845;SDS011;3968;51.424;6.788;2022-07-29T15:01:00;8.60;;;2.70;;
7845;SDS011;3968;51.424;6.788;2022-07-29T15:03:26;12.23;;;2.92;;
7845;SDS011;3968;51.424;6.788;2022-07-29T15:05:53;10.00;;;3.42;;
7845;SDS011;3968;51.424;6.788;2022-07-29T15:08:18;5.63;;;3.05;;
7845;SDS011;3968;51.424;6.788;2022-07-29T15:10:44;9.38;;;3.00;;
7845;SDS011;3968;51.424;6.788;2022-07-29T15:13:10;8.75;;;3.30;;
7845;SDS011;3968;51.424;6.788;2022-07-29T15:15:36;9.80;;;3.70;;
7845;SDS011;3968;51.424;6.788;2022-07-29T15:18:01;11.57;;;3.83;;
7845;SDS011;3968;51.424;6.788;2022-07-29T15:20:27;7.32;;;3.22;;
7845;SDS011;3968;51.424;6.788;2022-07-29T15:22:53;10.73;;;3.38;;
7845;SDS011;3968;51.424;6.788;2022-07-29T15:25:21;14.10;;;3.88;;
7845;SDS011;3968;51.424;6.788;2022-07-29T15:27:47;7.88;;;3.60;;
7845;SDS011;3968;51.424;6.788;2022-07-29T15:30:13;7.38;;;3.47;;
7845;SDS011;3968;51.424;6.788;2022-07-29T15:32:41;7.63;;;3.25;;
7845;SDS011;3968;51.424;6.788;2022-07-29T15:35:08;11.13;;;3.35;;
7845;SDS011;3968;51.424;6.788;2022-07-29T15:37:35;8.75;;;3.03;;
7845;SDS011;3968;51.424;6.788;2022-07-29T15:40:01;12.95;;;3.65;;
7845;SDS011;3968;51.424;6.788;2022-07-29T15:42:27;6.32;;;2.95;;
7845;SDS011;3968;51.424;6.788;2022-07-29T15:44:53;6.95;;;2.97;;
7845;SDS011;3968;51.424;6.788;2022-07-29T15:47:20;13.70;;;3.58;;
7845;SDS011;3968;51.424;6.788;2022-07-29T15:49:45;8.60;;;3.65;;
7845;SDS011;3968;51.424;6.788;2022-07-29T15:52:11;9.70;;;3.95;;
7845;SDS011;3968;51.424;6.788;2022-07-29T15:54:38;13.40;;;5.00;;
7845;SDS011;3968;51.424;6.788;2022-07-29T15:57:05;14.77;;;3.58;;
7845;SDS011;3968;51.424;6.788;2022-07-29T15:59:31;8.70;;;3.20;;
7845;SDS011;3968;51.424;6.788;2022-07-29T16:01:57;10.35;;;3.90;;
7845;SDS011;3968;51.424;6.788;2022-07-29T16:04:24;11.60;;;3.42;;
7845;SDS011;3968;51.424;6.788;2022-07-29T16:06:50;4.32;;;2.83;;
7845;SDS011;3968;51.424;6.788;2022-07-29T16:09:16;8.15;;;2.97;;
7845;SDS011;3968;51.424;6.788;2022-07-29T16:11:42;4.63;;;2.30;;
7845;SDS011;3968;51.424;6.788;2022-07-29T16:14:10;7.38;;;2.88;;
7845;SDS011;3968;51.424;6.788;2022-07-29T16:16:36;8.27;;;2.70;;
7845;SDS011;3968;51.424;6.788;2022-07-29T16:19:02;9.88;;;3.05;;
7845;SDS011;3968;51.424;6.788;2022-07-29T16:21:29;8.93;;;3.50;;
7845;SDS011;3968;51.424;6.788;2022-07-29T16:23:55;6.78;;;3.25;;
7845;SDS011;3968;51.424;6.788;2022-07-29T16:26:25;12.80;;;4.18;;
7845;SDS011;3968;51.424;6.788;2022-07-29T16:28:51;10.27;;;4.63;;
7845;SDS011;3968;51.424;6.788;2022-07-29T16:31:17;13.95;;;3.70;;
7845;SDS011;3968;51.424;6.788;2022-07-29T16:33:46;9.38;;;3.42;;
7845;SDS011;3968;51.424;6.788;2022-07-29T16:36:11;8.80;;;3.20;;
7845;SDS011;3968;51.424;6.788;2022-07-29T16:38:37;10.55;;;3.40;;
7845;SDS011;3968;51.424;6.788;2022-07-29T16:41:03;7.72;;;3.63;;
7845;SDS011;3968;51.424;6.788;2022-07-29T16:43:28;9.15;;;3.22;;
7845;SDS011;3968;51.424;6.788;2022-07-29T16:45:54;4.63;;;2.75;;
7845;SDS011;3968;51.424;6.788;2022-07-29T16:48:20;7.63;;;3.35;;
7845;SDS011;3968;51.424;6.788;2022-07-29T16:50:45;5.05;;;3.00;;
7845;SDS011;3968;51.424;6.788;2022-07-29T16:53:11;6.60;;;3.00;;